<?xml version="1.0" encoding="UTF-8"?>
<gpx version="1.1" creator="GPSBabel - http://www.gpsbabel.org" xmlns="http://www.topografix.com/GPX/1/1" xmlns:xsi="http://www.w3.org/2001/XMLSchema-instance">
  <metadata>
    <time>2025-06-21T06:09:19.015Z</time>
    <bounds minlat="44.459347000" minlon="4.759998000" maxlat="44.473006000" maxlon="4.772530000"/>
  </metadata>
  <trk>
    <name>randogps26-653</name>
    <trkseg>
      <trkpt lat="44.459944000" lon="4.760031000">
        <ele>148.000000</ele>
      </trkpt>
      <trkpt lat="44.460181000" lon="4.760202000">
        <ele>148.000000</ele>
      </trkpt>
      <trkpt lat="44.460312000" lon="4.760352000">
        <ele>148.000000</ele>
      </trkpt>
      <trkpt lat="44.460679000" lon="4.760588000">
        <ele>151.000000</ele>
      </trkpt>
      <trkpt lat="44.460603000" lon="4.760739000">
        <ele>151.000000</ele>
      </trkpt>
      <trkpt lat="44.460511000" lon="4.761200000">
        <ele>151.000000</ele>
      </trkpt>
      <trkpt lat="44.460503000" lon="4.761522000">
        <ele>155.000000</ele>
      </trkpt>
      <trkpt lat="44.460541000" lon="4.761940000">
        <ele>155.000000</ele>
      </trkpt>
      <trkpt lat="44.460626000" lon="4.762251000">
        <ele>157.000000</ele>
      </trkpt>
      <trkpt lat="44.460610000" lon="4.762434000">
        <ele>157.000000</ele>
      </trkpt>
      <trkpt lat="44.460763000" lon="4.762434000">
        <ele>157.000000</ele>
      </trkpt>
      <trkpt lat="44.460817000" lon="4.762605000">
        <ele>157.000000</ele>
      </trkpt>
      <trkpt lat="44.460618000" lon="4.762723000">
        <ele>157.000000</ele>
      </trkpt>
      <trkpt lat="44.460411000" lon="4.762820000">
        <ele>163.000000</ele>
      </trkpt>
      <trkpt lat="44.460136000" lon="4.762745000">
        <ele>163.000000</ele>
      </trkpt>
      <trkpt lat="44.460281000" lon="4.763045000">
        <ele>164.000000</ele>
      </trkpt>
      <trkpt lat="44.460434000" lon="4.763346000">
        <ele>166.000000</ele>
      </trkpt>
      <trkpt lat="44.460595000" lon="4.763732000">
        <ele>166.000000</ele>
      </trkpt>
      <trkpt lat="44.460802000" lon="4.764204000">
        <ele>175.000000</ele>
      </trkpt>
      <trkpt lat="44.461089000" lon="4.764722000">
        <ele>190.000000</ele>
        <time>2022-03-06T13:00:54Z</time>
      </trkpt>
      <trkpt lat="44.461196000" lon="4.764940000">
        <ele>190.000000</ele>
        <time>2022-03-06T13:00:02Z</time>
      </trkpt>
      <trkpt lat="44.461312000" lon="4.765186000">
        <ele>173.000000</ele>
        <time>2022-03-06T12:59:46Z</time>
      </trkpt>
      <trkpt lat="44.461457000" lon="4.765418000">
        <ele>180.000000</ele>
        <time>2022-03-06T12:59:29Z</time>
      </trkpt>
      <trkpt lat="44.461565000" lon="4.765669000">
        <ele>180.000000</ele>
        <time>2022-03-06T12:59:09Z</time>
      </trkpt>
      <trkpt lat="44.461689000" lon="4.765854000">
        <ele>180.000000</ele>
        <time>2022-03-06T12:58:53Z</time>
      </trkpt>
      <trkpt lat="44.461799000" lon="4.766095000">
        <ele>180.000000</ele>
        <time>2022-03-06T12:58:33Z</time>
      </trkpt>
      <trkpt lat="44.461650000" lon="4.766296000">
        <ele>180.000000</ele>
        <time>2022-03-06T12:58:13Z</time>
      </trkpt>
      <trkpt lat="44.461455000" lon="4.766411000">
        <ele>180.000000</ele>
        <time>2022-03-06T12:57:57Z</time>
      </trkpt>
      <trkpt lat="44.461299000" lon="4.766550000">
        <ele>180.000000</ele>
        <time>2022-03-06T12:57:37Z</time>
      </trkpt>
      <trkpt lat="44.461092000" lon="4.766601000">
        <ele>189.000000</ele>
        <time>2022-03-06T12:57:05Z</time>
      </trkpt>
      <trkpt lat="44.461004000" lon="4.766871000">
        <ele>188.000000</ele>
        <time>2022-03-06T12:56:45Z</time>
      </trkpt>
      <trkpt lat="44.460926000" lon="4.767147000">
        <ele>187.000000</ele>
        <time>2022-03-06T12:56:25Z</time>
      </trkpt>
      <trkpt lat="44.460909000" lon="4.767398000">
        <ele>188.000000</ele>
        <time>2022-03-06T12:56:09Z</time>
      </trkpt>
      <trkpt lat="44.460882000" lon="4.767666000">
        <ele>189.000000</ele>
        <time>2022-03-06T12:55:49Z</time>
      </trkpt>
      <trkpt lat="44.460881000" lon="4.767939000">
        <ele>190.000000</ele>
        <time>2022-03-06T12:55:29Z</time>
      </trkpt>
      <trkpt lat="44.460784000" lon="4.768154000">
        <ele>191.000000</ele>
        <time>2022-03-06T12:54:57Z</time>
      </trkpt>
      <trkpt lat="44.460786000" lon="4.768410000">
        <ele>191.000000</ele>
      </trkpt>
      <trkpt lat="44.460649000" lon="4.768839000">
        <ele>192.000000</ele>
      </trkpt>
      <trkpt lat="44.460480000" lon="4.769311000">
        <ele>192.000000</ele>
      </trkpt>
      <trkpt lat="44.460296000" lon="4.769783000">
        <ele>207.000000</ele>
      </trkpt>
      <trkpt lat="44.459944000" lon="4.770362000">
        <ele>207.000000</ele>
      </trkpt>
      <trkpt lat="44.459546000" lon="4.770663000">
        <ele>222.000000</ele>
      </trkpt>
      <trkpt lat="44.459347000" lon="4.771264000">
        <ele>231.000000</ele>
      </trkpt>
      <trkpt lat="44.459485000" lon="4.771521000">
        <ele>231.000000</ele>
      </trkpt>
      <trkpt lat="44.459653000" lon="4.771864000">
        <ele>212.000000</ele>
      </trkpt>
      <trkpt lat="44.460005000" lon="4.772229000">
        <ele>226.000000</ele>
      </trkpt>
      <trkpt lat="44.460312000" lon="4.772530000">
        <ele>226.000000</ele>
      </trkpt>
      <trkpt lat="44.460404000" lon="4.772422000">
        <ele>226.000000</ele>
      </trkpt>
      <trkpt lat="44.460511000" lon="4.772015000">
        <ele>218.000000</ele>
      </trkpt>
      <trkpt lat="44.460557000" lon="4.771478000">
        <ele>218.000000</ele>
      </trkpt>
      <trkpt lat="44.460587000" lon="4.770706000">
        <ele>211.000000</ele>
      </trkpt>
      <trkpt lat="44.460756000" lon="4.770319000">
        <ele>199.000000</ele>
      </trkpt>
      <trkpt lat="44.460848000" lon="4.769912000">
        <ele>199.000000</ele>
      </trkpt>
      <trkpt lat="44.461047000" lon="4.769354000">
        <ele>192.000000</ele>
      </trkpt>
      <trkpt lat="44.461246000" lon="4.768689000">
        <ele>191.000000</ele>
      </trkpt>
      <trkpt lat="44.461459000" lon="4.768468000">
        <ele>189.000000</ele>
        <time>2022-03-06T12:52:56Z</time>
      </trkpt>
      <trkpt lat="44.461650000" lon="4.768411000">
        <ele>189.000000</ele>
        <time>2022-03-06T12:52:36Z</time>
      </trkpt>
      <trkpt lat="44.461863000" lon="4.768351000">
        <ele>189.000000</ele>
        <time>2022-03-06T12:52:00Z</time>
      </trkpt>
      <trkpt lat="44.462057000" lon="4.768375000">
        <ele>189.000000</ele>
        <time>2022-03-06T12:51:44Z</time>
      </trkpt>
      <trkpt lat="44.462234000" lon="4.768426000">
        <ele>189.000000</ele>
        <time>2022-03-06T12:51:28Z</time>
      </trkpt>
      <trkpt lat="44.462426000" lon="4.768442000">
        <ele>189.000000</ele>
        <time>2022-03-06T12:51:08Z</time>
      </trkpt>
      <trkpt lat="44.462657000" lon="4.768486000">
        <ele>188.000000</ele>
        <time>2022-03-06T12:50:44Z</time>
      </trkpt>
      <trkpt lat="44.462847000" lon="4.768515000">
        <ele>187.000000</ele>
        <time>2022-03-06T12:50:24Z</time>
      </trkpt>
      <trkpt lat="44.463042000" lon="4.768579000">
        <ele>186.000000</ele>
        <time>2022-03-06T12:50:04Z</time>
      </trkpt>
      <trkpt lat="44.463221000" lon="4.768643000">
        <ele>185.000000</ele>
        <time>2022-03-06T12:49:44Z</time>
      </trkpt>
      <trkpt lat="44.463369000" lon="4.768474000">
        <ele>185.000000</ele>
        <time>2022-03-06T12:49:24Z</time>
      </trkpt>
      <trkpt lat="44.463539000" lon="4.768332000">
        <ele>185.000000</ele>
        <time>2022-03-06T12:48:51Z</time>
      </trkpt>
      <trkpt lat="44.463644000" lon="4.768118000">
        <ele>182.000000</ele>
        <time>2022-03-06T12:48:11Z</time>
      </trkpt>
      <trkpt lat="44.463811000" lon="4.768217000">
        <ele>179.000000</ele>
        <time>2022-03-06T12:47:07Z</time>
      </trkpt>
      <trkpt lat="44.463901000" lon="4.768435000">
        <ele>181.000000</ele>
        <time>2022-03-06T12:46:23Z</time>
      </trkpt>
      <trkpt lat="44.463910000" lon="4.768711000">
        <ele>183.000000</ele>
        <time>2022-03-06T12:46:02Z</time>
      </trkpt>
      <trkpt lat="44.464074000" lon="4.768899000">
        <ele>185.000000</ele>
        <time>2022-03-06T12:45:42Z</time>
      </trkpt>
      <trkpt lat="44.464245000" lon="4.768813000">
        <ele>187.000000</ele>
        <time>2022-03-06T12:44:58Z</time>
      </trkpt>
      <trkpt lat="44.464433000" lon="4.768765000">
        <ele>186.000000</ele>
        <time>2022-03-06T12:44:34Z</time>
      </trkpt>
      <trkpt lat="44.464616000" lon="4.768773000">
        <ele>185.000000</ele>
        <time>2022-03-06T12:44:17Z</time>
      </trkpt>
      <trkpt lat="44.464817000" lon="4.768836000">
        <ele>185.000000</ele>
        <time>2022-03-06T12:44:01Z</time>
      </trkpt>
      <trkpt lat="44.465054000" lon="4.768948000">
        <ele>185.000000</ele>
        <time>2022-03-06T12:43:29Z</time>
      </trkpt>
      <trkpt lat="44.465272000" lon="4.768929000">
        <ele>185.000000</ele>
        <time>2022-03-06T12:43:09Z</time>
      </trkpt>
      <trkpt lat="44.465464000" lon="4.768998000">
        <ele>185.000000</ele>
        <time>2022-03-06T12:42:53Z</time>
      </trkpt>
      <trkpt lat="44.465603000" lon="4.768808000">
        <ele>185.000000</ele>
        <time>2022-03-06T12:42:29Z</time>
      </trkpt>
      <trkpt lat="44.465689000" lon="4.768562000">
        <ele>174.000000</ele>
        <time>2022-03-06T12:42:05Z</time>
      </trkpt>
      <trkpt lat="44.465863000" lon="4.768379000">
        <ele>174.000000</ele>
        <time>2022-03-06T12:41:25Z</time>
      </trkpt>
      <trkpt lat="44.466064000" lon="4.768416000">
        <ele>174.000000</ele>
        <time>2022-03-06T12:41:05Z</time>
      </trkpt>
      <trkpt lat="44.466247000" lon="4.768482000">
        <ele>173.000000</ele>
        <time>2022-03-06T12:40:49Z</time>
      </trkpt>
      <trkpt lat="44.466448000" lon="4.768482000">
        <ele>172.000000</ele>
        <time>2022-03-06T12:40:29Z</time>
      </trkpt>
      <trkpt lat="44.466644000" lon="4.768445000">
        <ele>172.000000</ele>
        <time>2022-03-06T12:39:45Z</time>
      </trkpt>
      <trkpt lat="44.466819000" lon="4.768513000">
        <ele>172.000000</ele>
        <time>2022-03-06T12:38:45Z</time>
      </trkpt>
      <trkpt lat="44.467002000" lon="4.768528000">
        <ele>172.000000</ele>
        <time>2022-03-06T12:38:25Z</time>
      </trkpt>
      <trkpt lat="44.467192000" lon="4.768560000">
        <ele>172.000000</ele>
        <time>2022-03-06T12:37:14Z</time>
      </trkpt>
      <trkpt lat="44.467379000" lon="4.768567000">
        <ele>172.000000</ele>
        <time>2022-03-06T12:36:50Z</time>
      </trkpt>
      <trkpt lat="44.467561000" lon="4.768534000">
        <ele>172.000000</ele>
        <time>2022-03-06T12:36:34Z</time>
      </trkpt>
      <trkpt lat="44.467773000" lon="4.768575000">
        <ele>172.000000</ele>
        <time>2022-03-06T12:36:10Z</time>
      </trkpt>
      <trkpt lat="44.467982000" lon="4.768669000">
        <ele>169.000000</ele>
        <time>2022-03-06T12:35:50Z</time>
      </trkpt>
      <trkpt lat="44.468205000" lon="4.768721000">
        <ele>174.000000</ele>
        <time>2022-03-06T12:35:30Z</time>
      </trkpt>
      <trkpt lat="44.468377000" lon="4.768819000">
        <ele>179.000000</ele>
        <time>2022-03-06T12:35:10Z</time>
      </trkpt>
      <trkpt lat="44.468557000" lon="4.768868000">
        <ele>177.000000</ele>
        <time>2022-03-06T12:34:54Z</time>
      </trkpt>
      <trkpt lat="44.468753000" lon="4.768947000">
        <ele>176.000000</ele>
        <time>2022-03-06T12:34:34Z</time>
      </trkpt>
      <trkpt lat="44.468949000" lon="4.768992000">
        <ele>175.000000</ele>
        <time>2022-03-06T12:34:14Z</time>
      </trkpt>
      <trkpt lat="44.469130000" lon="4.769053000">
        <ele>175.000000</ele>
        <time>2022-03-06T12:33:58Z</time>
      </trkpt>
      <trkpt lat="44.469350000" lon="4.769141000">
        <ele>175.000000</ele>
        <time>2022-03-06T12:33:38Z</time>
      </trkpt>
      <trkpt lat="44.469560000" lon="4.769219000">
        <ele>174.000000</ele>
        <time>2022-03-06T12:33:18Z</time>
      </trkpt>
      <trkpt lat="44.469742000" lon="4.769276000">
        <ele>173.000000</ele>
        <time>2022-03-06T12:33:02Z</time>
      </trkpt>
      <trkpt lat="44.469935000" lon="4.769335000">
        <ele>173.000000</ele>
        <time>2022-03-06T12:32:46Z</time>
      </trkpt>
      <trkpt lat="44.470109000" lon="4.769397000">
        <ele>175.000000</ele>
        <time>2022-03-06T12:32:26Z</time>
      </trkpt>
      <trkpt lat="44.470284000" lon="4.769474000">
        <ele>177.000000</ele>
        <time>2022-03-06T12:32:06Z</time>
      </trkpt>
      <trkpt lat="44.470484000" lon="4.769622000">
        <ele>179.000000</ele>
        <time>2022-03-06T12:31:45Z</time>
      </trkpt>
      <trkpt lat="44.470650000" lon="4.769823000">
        <ele>181.000000</ele>
        <time>2022-03-06T12:31:17Z</time>
      </trkpt>
      <trkpt lat="44.470792000" lon="4.770003000">
        <ele>181.000000</ele>
        <time>2022-03-06T12:31:01Z</time>
      </trkpt>
      <trkpt lat="44.470844000" lon="4.770254000">
        <ele>181.000000</ele>
        <time>2022-03-06T12:30:25Z</time>
      </trkpt>
      <trkpt lat="44.470714000" lon="4.770469000">
        <ele>196.000000</ele>
        <time>2022-03-06T12:29:57Z</time>
      </trkpt>
      <trkpt lat="44.470581000" lon="4.770678000">
        <ele>198.000000</ele>
        <time>2022-03-06T12:29:33Z</time>
      </trkpt>
      <trkpt lat="44.470423000" lon="4.770813000">
        <ele>200.000000</ele>
        <time>2022-03-06T12:29:09Z</time>
      </trkpt>
      <trkpt lat="44.470273000" lon="4.770970000">
        <ele>204.000000</ele>
        <time>2022-03-06T12:28:29Z</time>
      </trkpt>
      <trkpt lat="44.470144000" lon="4.771164000">
        <ele>204.000000</ele>
        <time>2022-03-06T12:28:09Z</time>
      </trkpt>
      <trkpt lat="44.470089000" lon="4.771414000">
        <ele>221.000000</ele>
        <time>2022-03-06T12:27:49Z</time>
      </trkpt>
      <trkpt lat="44.469916000" lon="4.771519000">
        <ele>221.000000</ele>
        <time>2022-03-06T12:27:05Z</time>
      </trkpt>
      <trkpt lat="44.469756000" lon="4.771688000">
        <ele>221.000000</ele>
        <time>2022-03-06T12:26:29Z</time>
      </trkpt>
      <trkpt lat="44.469629000" lon="4.771507000">
        <ele>221.000000</ele>
        <time>2022-03-06T12:24:53Z</time>
      </trkpt>
      <trkpt lat="44.469660000" lon="4.771757000">
        <ele>221.000000</ele>
        <time>2022-03-06T12:21:58Z</time>
      </trkpt>
      <trkpt lat="44.469861000" lon="4.771683000">
        <ele>221.000000</ele>
        <time>2022-03-06T12:21:18Z</time>
      </trkpt>
      <trkpt lat="44.470025000" lon="4.771485000">
        <ele>221.000000</ele>
        <time>2022-03-06T12:20:46Z</time>
      </trkpt>
      <trkpt lat="44.470129000" lon="4.771253000">
        <ele>221.000000</ele>
        <time>2022-03-06T12:20:14Z</time>
      </trkpt>
      <trkpt lat="44.470225000" lon="4.771037000">
        <ele>204.000000</ele>
        <time>2022-03-06T12:19:38Z</time>
      </trkpt>
      <trkpt lat="44.470353000" lon="4.770793000">
        <ele>200.000000</ele>
        <time>2022-03-06T12:19:02Z</time>
      </trkpt>
      <trkpt lat="44.470535000" lon="4.770702000">
        <ele>196.000000</ele>
        <time>2022-03-06T12:18:38Z</time>
      </trkpt>
      <trkpt lat="44.470736000" lon="4.770527000">
        <ele>196.000000</ele>
        <time>2022-03-06T12:18:02Z</time>
      </trkpt>
      <trkpt lat="44.470874000" lon="4.770337000">
        <ele>181.000000</ele>
        <time>2022-03-06T12:17:26Z</time>
      </trkpt>
      <trkpt lat="44.471008000" lon="4.770158000">
        <ele>179.000000</ele>
        <time>2022-03-06T12:16:50Z</time>
      </trkpt>
      <trkpt lat="44.471208000" lon="4.770052000">
        <ele>177.000000</ele>
        <time>2022-03-06T12:16:26Z</time>
      </trkpt>
      <trkpt lat="44.471445000" lon="4.769847000">
        <ele>173.000000</ele>
      </trkpt>
      <trkpt lat="44.471659000" lon="4.769719000">
        <ele>173.000000</ele>
      </trkpt>
      <trkpt lat="44.472027000" lon="4.769397000">
        <ele>163.000000</ele>
      </trkpt>
      <trkpt lat="44.472287000" lon="4.769118000">
        <ele>154.000000</ele>
      </trkpt>
      <trkpt lat="44.472624000" lon="4.768775000">
        <ele>154.000000</ele>
      </trkpt>
      <trkpt lat="44.473006000" lon="4.768453000">
        <ele>143.000000</ele>
      </trkpt>
      <trkpt lat="44.472746000" lon="4.768088000">
        <ele>151.000000</ele>
      </trkpt>
      <trkpt lat="44.472317000" lon="4.767895000">
        <ele>144.000000</ele>
      </trkpt>
      <trkpt lat="44.471950000" lon="4.767680000">
        <ele>148.000000</ele>
      </trkpt>
      <trkpt lat="44.471383000" lon="4.767337000">
        <ele>148.000000</ele>
      </trkpt>
      <trkpt lat="44.470664000" lon="4.766886000">
        <ele>149.000000</ele>
      </trkpt>
      <trkpt lat="44.470220000" lon="4.766672000">
        <ele>150.000000</ele>
      </trkpt>
      <trkpt lat="44.469883000" lon="4.766650000">
        <ele>150.000000</ele>
      </trkpt>
      <trkpt lat="44.469515000" lon="4.766500000">
        <ele>153.000000</ele>
      </trkpt>
      <trkpt lat="44.469240000" lon="4.766564000">
        <ele>153.000000</ele>
      </trkpt>
      <trkpt lat="44.468872000" lon="4.766715000">
        <ele>153.000000</ele>
      </trkpt>
      <trkpt lat="44.468547000" lon="4.766600000">
        <ele>158.000000</ele>
        <time>2022-03-06T11:59:09Z</time>
      </trkpt>
      <trkpt lat="44.468316000" lon="4.766566000">
        <ele>158.000000</ele>
        <time>2022-03-06T11:58:53Z</time>
      </trkpt>
      <trkpt lat="44.468125000" lon="4.766610000">
        <ele>158.000000</ele>
        <time>2022-03-06T11:58:37Z</time>
      </trkpt>
      <trkpt lat="44.467891000" lon="4.766629000">
        <ele>158.000000</ele>
        <time>2022-03-06T11:58:21Z</time>
      </trkpt>
      <trkpt lat="44.467667000" lon="4.766652000">
        <ele>158.000000</ele>
        <time>2022-03-06T11:58:01Z</time>
      </trkpt>
      <trkpt lat="44.467466000" lon="4.766737000">
        <ele>158.000000</ele>
        <time>2022-03-06T11:57:09Z</time>
      </trkpt>
      <trkpt lat="44.467263000" lon="4.766786000">
        <ele>158.000000</ele>
        <time>2022-03-06T11:55:41Z</time>
      </trkpt>
      <trkpt lat="44.467084000" lon="4.766727000">
        <ele>157.000000</ele>
        <time>2022-03-06T11:55:09Z</time>
      </trkpt>
      <trkpt lat="44.466916000" lon="4.766602000">
        <ele>157.000000</ele>
        <time>2022-03-06T11:54:53Z</time>
      </trkpt>
      <trkpt lat="44.466734000" lon="4.766449000">
        <ele>157.000000</ele>
        <time>2022-03-06T11:53:37Z</time>
      </trkpt>
      <trkpt lat="44.466576000" lon="4.766308000">
        <ele>157.000000</ele>
        <time>2022-03-06T11:53:21Z</time>
      </trkpt>
      <trkpt lat="44.466374000" lon="4.766254000">
        <ele>160.000000</ele>
        <time>2022-03-06T11:52:17Z</time>
      </trkpt>
      <trkpt lat="44.466192000" lon="4.766268000">
        <ele>163.000000</ele>
        <time>2022-03-06T11:51:41Z</time>
      </trkpt>
      <trkpt lat="44.465986000" lon="4.766326000">
        <ele>163.000000</ele>
        <time>2022-03-06T11:51:21Z</time>
      </trkpt>
      <trkpt lat="44.465775000" lon="4.766441000">
        <ele>164.000000</ele>
        <time>2022-03-06T11:51:05Z</time>
      </trkpt>
      <trkpt lat="44.465599000" lon="4.766502000">
        <ele>165.000000</ele>
        <time>2022-03-06T11:50:49Z</time>
      </trkpt>
      <trkpt lat="44.465406000" lon="4.766558000">
        <ele>166.000000</ele>
        <time>2022-03-06T11:50:33Z</time>
      </trkpt>
      <trkpt lat="44.465225000" lon="4.766601000">
        <ele>167.000000</ele>
        <time>2022-03-06T11:50:21Z</time>
      </trkpt>
      <trkpt lat="44.465037000" lon="4.766721000">
        <ele>167.000000</ele>
        <time>2022-03-06T11:50:05Z</time>
      </trkpt>
      <trkpt lat="44.464866000" lon="4.766810000">
        <ele>167.000000</ele>
        <time>2022-03-06T11:49:53Z</time>
      </trkpt>
      <trkpt lat="44.464684000" lon="4.766902000">
        <ele>167.000000</ele>
        <time>2022-03-06T11:49:37Z</time>
      </trkpt>
      <trkpt lat="44.464460000" lon="4.767034000">
        <ele>172.000000</ele>
        <time>2022-03-06T11:49:17Z</time>
      </trkpt>
      <trkpt lat="44.464280000" lon="4.767069000">
        <ele>172.000000</ele>
        <time>2022-03-06T11:48:13Z</time>
      </trkpt>
      <trkpt lat="44.464096000" lon="4.766966000">
        <ele>172.000000</ele>
        <time>2022-03-06T11:48:01Z</time>
      </trkpt>
      <trkpt lat="44.463896000" lon="4.767049000">
        <ele>173.000000</ele>
        <time>2022-03-06T11:47:45Z</time>
      </trkpt>
      <trkpt lat="44.463695000" lon="4.767040000">
        <ele>174.000000</ele>
        <time>2022-03-06T11:47:25Z</time>
      </trkpt>
      <trkpt lat="44.463485000" lon="4.766998000">
        <ele>174.000000</ele>
        <time>2022-03-06T11:47:05Z</time>
      </trkpt>
      <trkpt lat="44.463290000" lon="4.766796000">
        <ele>174.000000</ele>
        <time>2022-03-06T11:46:41Z</time>
      </trkpt>
      <trkpt lat="44.463124000" lon="4.766685000">
        <ele>174.000000</ele>
        <time>2022-03-06T11:46:25Z</time>
      </trkpt>
      <trkpt lat="44.462955000" lon="4.766547000">
        <ele>174.000000</ele>
        <time>2022-03-06T11:45:45Z</time>
      </trkpt>
      <trkpt lat="44.462790000" lon="4.766438000">
        <ele>174.000000</ele>
        <time>2022-03-06T11:45:13Z</time>
      </trkpt>
      <trkpt lat="44.462602000" lon="4.766310000">
        <ele>174.000000</ele>
        <time>2022-03-06T11:43:32Z</time>
      </trkpt>
      <trkpt lat="44.462532000" lon="4.766232000">
        <ele>173.000000</ele>
      </trkpt>
      <trkpt lat="44.462302709" lon="4.766661357">
        <ele>173.000000</ele>
      </trkpt>
      <trkpt lat="44.462168360" lon="4.767009656">
        <ele>173.000000</ele>
      </trkpt>
      <trkpt lat="44.462130245" lon="4.767170139">
        <ele>173.000000</ele>
      </trkpt>
      <trkpt lat="44.461698034" lon="4.768090922">
        <ele>173.000000</ele>
      </trkpt>
      <trkpt lat="44.461384024" lon="4.768495346">
        <ele>173.000000</ele>
      </trkpt>
      <trkpt lat="44.461100304" lon="4.768463854">
        <ele>173.000000</ele>
      </trkpt>
      <trkpt lat="44.460923985" lon="4.768356414">
        <ele>173.000000</ele>
      </trkpt>
      <trkpt lat="44.460924075" lon="4.767723429">
        <ele>172.000000</ele>
      </trkpt>
      <trkpt lat="44.461031084" lon="4.767004699">
        <ele>173.000000</ele>
      </trkpt>
      <trkpt lat="44.461161551" lon="4.766591334">
        <ele>189.000000</ele>
      </trkpt>
      <trkpt lat="44.461571369" lon="4.766352465">
        <ele>180.000000</ele>
      </trkpt>
      <trkpt lat="44.461690203" lon="4.766124324">
        <ele>173.000000</ele>
      </trkpt>
      <trkpt lat="44.461345602" lon="4.765255882">
        <ele>173.000000</ele>
      </trkpt>
      <trkpt lat="44.461085000" lon="4.764708000">
        <ele>175.000000</ele>
      </trkpt>
      <trkpt lat="44.460840000" lon="4.764322000">
        <ele>175.000000</ele>
      </trkpt>
      <trkpt lat="44.460641000" lon="4.763829000">
        <ele>175.000000</ele>
      </trkpt>
      <trkpt lat="44.460381000" lon="4.763174000">
        <ele>176.000000</ele>
      </trkpt>
      <trkpt lat="44.460158000" lon="4.762799000">
        <ele>163.000000</ele>
      </trkpt>
      <trkpt lat="44.460518000" lon="4.762777000">
        <ele>157.000000</ele>
      </trkpt>
      <trkpt lat="44.460748000" lon="4.762648000">
        <ele>157.000000</ele>
      </trkpt>
      <trkpt lat="44.460763000" lon="4.762466000">
        <ele>157.000000</ele>
      </trkpt>
      <trkpt lat="44.460580000" lon="4.762423000">
        <ele>157.000000</ele>
      </trkpt>
      <trkpt lat="44.460610000" lon="4.762166000">
        <ele>157.000000</ele>
      </trkpt>
      <trkpt lat="44.460541000" lon="4.761790000">
        <ele>155.000000</ele>
      </trkpt>
      <trkpt lat="44.460511000" lon="4.761254000">
        <ele>155.000000</ele>
      </trkpt>
      <trkpt lat="44.460672000" lon="4.760588000">
        <ele>151.000000</ele>
      </trkpt>
      <trkpt lat="44.460411000" lon="4.760406000">
        <ele>148.000000</ele>
      </trkpt>
      <trkpt lat="44.460235000" lon="4.760288000">
        <ele>148.000000</ele>
      </trkpt>
      <trkpt lat="44.459936000" lon="4.759998000">
        <ele>148.000000</ele>
      </trkpt>
    </trkseg>
  </trk>
</gpx>
